Time;durP1;ratioP1;P1;durP2;ratioP2;P2;SDS_P1;SDS_P2;PMS_P1;PMS_P2;Temp;Humidity;BMP_temperature;BMP_pressure;BME280_temperature;BME280_humidity;BME280_pressure;Samples;Min_cycle;Max_cycle;Signal;HPM_P1;HPM_P2
2023/08/16 00:02:09;;;;;;;7.85;1.83;;;15.90;99.90;;;;;;6159015;23;20384;-86
2023/08/16 00:04:35;;;;;;;8.40;2.60;;;15.80;99.90;;;;;;6158002;23;20009;-86
2023/08/16 00:07:00;;;;;;;6.10;1.83;;;15.80;99.90;;;;;;6158075;23;20009;-86
2023/08/16 00:09:26;;;;;;;2.40;1.02;;;15.80;99.90;;;;;;6158396;23;20140;-86
2023/08/16 00:11:51;;;;;;;5.15;1.67;;;15.60;99.90;;;;;;6158752;23;20013;-86
2023/08/16 00:14:18;;;;;;;4.95;2.03;;;15.60;99.90;;;;;;6133612;23;20079;-86
2023/08/16 00:16:43;;;;;;;4.28;1.30;;;15.60;99.90;;;;;;6158709;23;20016;-86
2023/08/16 00:19:09;;;;;;;3.95;1.52;;;15.50;99.90;;;;;;6157667;23;20013;-86
2023/08/16 00:21:35;;;;;;;6.63;2.58;;;15.40;99.90;;;;;;6158651;23;20650;-86
2023/08/16 00:24:01;;;;;;;3.65;1.63;;;15.50;99.90;;;;;;6133481;23;20020;-86
2023/08/16 00:26:27;;;;;;;4.82;1.85;;;15.50;99.90;;;;;;6158241;23;20009;-86
2023/08/16 00:28:53;;;;;;;3.97;1.60;;;15.40;99.90;;;;;;6133482;23;20013;-86
2023/08/16 00:31:19;;;;;;;3.15;1.63;;;15.40;99.90;;;;;;6158325;23;20036;-86
2023/08/16 00:33:45;;;;;;;4.60;1.70;;;15.40;99.90;;;;;;6133571;23;20017;-86
2023/08/16 00:36:10;;;;;;;3.20;1.60;;;15.40;99.90;;;;;;6158810;23;20044;-86
2023/08/16 00:38:42;;;;;;;4.18;2.00;;;15.40;99.90;;;;;;6158444;23;20071;-86
2023/08/16 00:41:09;;;;;;;5.80;2.13;;;15.40;99.90;;;;;;6158456;23;20009;-85
2023/08/16 00:43:35;;;;;;;5.10;2.10;;;15.40;99.90;;;;;;6158242;23;20359;-86
2023/08/16 00:46:00;;;;;;;8.25;4.00;;;15.30;99.90;;;;;;6132972;23;20013;-85
2023/08/16 00:48:34;;;;;;;6.75;2.70;;;15.30;99.90;;;;;;6132839;23;20016;-86
2023/08/16 00:51:01;;;;;;;7.78;3.80;;;15.30;99.90;;;;;;6133366;23;20052;-85
2023/08/16 00:53:29;;;;;;;9.68;4.65;;;15.30;99.90;;;;;;6157787;23;20742;-86
2023/08/16 00:55:55;;;;;;;6.80;2.65;;;15.40;99.90;;;;;;6158351;23;20493;-86
2023/08/16 00:58:21;;;;;;;9.05;4.40;;;15.40;99.90;;;;;;6157853;23;20013;-86
2023/08/16 01:00:47;;;;;;;9.07;3.97;;;15.40;99.90;;;;;;6133708;23;20097;-86
2023/08/16 01:03:12;;;;;;;7.47;2.78;;;15.40;99.90;;;;;;6158339;23;20478;-86
2023/08/16 01:05:38;;;;;;;8.57;3.90;;;15.30;99.90;;;;;;6133256;23;20013;-86
2023/08/16 01:08:04;;;;;;;8.20;4.45;;;15.30;99.90;;;;;;6157417;23;20032;-86
2023/08/16 01:10:41;;;;;;;6.30;2.72;;;15.30;99.90;;;;;;6157845;23;20032;-86
2023/08/16 01:13:12;;;;;;;8.50;3.70;;;15.30;99.90;;;;;;6184453;23;20455;-86
2023/08/16 01:15:42;;;;;;;7.53;4.50;;;15.20;99.90;;;;;;6133536;23;20017;-86
2023/08/16 01:18:09;;;;;;;8.13;2.35;;;15.30;99.90;;;;;;6157940;23;20040;-86
2023/08/16 01:20:36;;;;;;;7.00;2.58;;;15.20;99.90;;;;;;6158445;23;20052;-86
2023/08/16 01:23:05;;;;;;;7.25;2.70;;;15.10;99.90;;;;;;6133689;23;20044;-87
2023/08/16 01:25:41;;;;;;;4.68;1.52;;;15.10;99.90;;;;;;6133164;23;20023;-86
2023/08/16 01:28:07;;;;;;;3.25;1.30;;;15.10;99.90;;;;;;6157367;23;20024;-87
2023/08/16 01:30:33;;;;;;;5.55;1.90;;;15.00;99.90;;;;;;6184209;23;20016;-86
2023/08/16 01:33:10;;;;;;;6.75;2.67;;;14.90;99.90;;;;;;6133375;23;20024;-86
2023/08/16 01:35:37;;;;;;;5.53;2.17;;;15.00;99.90;;;;;;6133089;23;20147;-86
2023/08/16 01:38:04;;;;;;;6.78;2.85;;;14.90;99.90;;;;;;6157918;23;20096;-86
2023/08/16 01:41:05;;;;;;;5.13;2.40;;;15.00;99.90;;;;;;6157350;23;20467;-86
2023/08/16 01:43:32;;;;;;;2.03;1.00;;;15.00;99.90;;;;;;6122219;23;20063;-86
2023/08/16 01:46:00;;;;;;;1.17;0.90;;;14.90;99.90;;;;;;6157348;23;20113;-86
2023/08/16 01:48:26;;;;;;;1.52;0.70;;;14.90;99.90;;;;;;6133014;23;20354;-86
2023/08/16 01:50:52;;;;;;;2.92;0.60;;;14.80;99.90;;;;;;6132378;23;20039;-86
2023/08/16 01:53:19;;;;;;;3.33;1.20;;;14.70;99.90;;;;;;6157781;23;20009;-86
2023/08/16 01:55:45;;;;;;;2.85;1.20;;;14.70;99.90;;;;;;6157513;23;20063;-85
2023/08/16 01:58:10;;;;;;;3.33;1.30;;;14.70;99.90;;;;;;6133719;23;20017;-86
2023/08/16 02:00:36;;;;;;;2.17;0.98;;;14.70;99.90;;;;;;6157767;23;20092;-86
2023/08/16 02:03:02;;;;;;;3.40;1.30;;;14.60;99.90;;;;;;6157795;23;20013;-85
2023/08/16 02:05:27;;;;;;;3.50;1.65;;;14.60;99.90;;;;;;6132142;23;20031;-86
2023/08/16 02:07:53;;;;;;;4.53;1.50;;;14.60;99.90;;;;;;6132339;23;20005;-86
2023/08/16 02:10:19;;;;;;;3.58;1.42;;;14.60;99.90;;;;;;6157429;23;20027;-86
2023/08/16 02:12:45;;;;;;;5.53;2.42;;;14.50;99.90;;;;;;6157572;23;20077;-86
2023/08/16 02:15:11;;;;;;;4.93;1.85;;;14.50;99.90;;;;;;6132666;23;20013;-86
2023/08/16 02:17:37;;;;;;;5.35;2.63;;;14.50;99.90;;;;;;6157423;23;20013;-86
2023/08/16 02:20:04;;;;;;;6.80;2.10;;;14.50;99.90;;;;;;6157262;23;20013;-86
2023/08/16 02:22:30;;;;;;;6.57;1.90;;;14.60;99.90;;;;;;6133052;23;20009;-86
2023/08/16 02:24:56;;;;;;;6.47;2.00;;;14.50;99.90;;;;;;6157247;23;20005;-86
2023/08/16 02:27:21;;;;;;;1.92;0.93;;;14.40;99.90;;;;;;6157206;23;20086;-86
2023/08/16 02:29:47;;;;;;;3.53;1.13;;;14.40;99.90;;;;;;6156985;23;20386;-86
2023/08/16 02:32:12;;;;;;;2.85;1.20;;;14.30;99.90;;;;;;6132460;23;20021;-86
2023/08/16 02:34:38;;;;;;;4.43;1.30;;;14.30;99.90;;;;;;6156522;23;20378;-86
2023/08/16 02:37:04;;;;;;;34.50;3.42;;;14.20;99.90;;;;;;6132647;23;20013;-85
2023/08/16 02:39:30;;;;;;;4.55;1.10;;;14.20;99.90;;;;;;6132333;23;20009;-85
2023/08/16 02:41:55;;;;;;;3.72;0.80;;;14.10;99.90;;;;;;6157510;23;20043;-86
2023/08/16 02:44:21;;;;;;;9.02;1.30;;;14.00;99.90;;;;;;6157066;23;20136;-86
2023/08/16 02:46:47;;;;;;;12.73;2.60;;;14.00;99.90;;;;;;6157076;23;20019;-85
2023/08/16 02:49:12;;;;;;;18.63;2.60;;;14.00;99.90;;;;;;6156650;23;20443;-85
2023/08/16 02:51:38;;;;;;;15.85;1.52;;;14.10;99.90;;;;;;6132323;23;20063;-85
2023/08/16 02:54:06;;;;;;;12.43;1.48;;;14.00;99.90;;;;;;6157108;23;20024;-86
2023/08/16 02:56:31;;;;;;;5.88;1.35;;;14.00;99.90;;;;;;6157259;23;20091;-86
2023/08/16 02:58:57;;;;;;;3.40;2.00;;;13.90;99.90;;;;;;6132978;23;20022;-86
2023/08/16 03:01:23;;;;;;;1.80;0.90;;;14.00;99.90;;;;;;6157169;23;20108;-86
2023/08/16 03:03:48;;;;;;;1.85;0.95;;;13.90;99.90;;;;;;6157113;23;20040;-86
2023/08/16 03:06:15;;;;;;;2.17;1.10;;;13.90;99.90;;;;;;6132031;23;20017;-86
2023/08/16 03:08:40;;;;;;;3.40;1.35;;;14.00;99.90;;;;;;6156902;23;20009;-85
2023/08/16 03:11:06;;;;;;;1.63;0.82;;;14.00;99.90;;;;;;6158996;23;20359;-86
2023/08/16 03:13:32;;;;;;;2.08;0.98;;;14.00;99.90;;;;;;6159271;23;20009;-86
2023/08/16 03:15:57;;;;;;;3.03;0.95;;;13.90;99.90;;;;;;6134378;23;20450;-85
2023/08/16 03:18:23;;;;;;;2.55;1.17;;;13.90;99.90;;;;;;6158948;23;20013;-85
2023/08/16 03:20:48;;;;;;;2.53;1.17;;;13.90;99.90;;;;;;6134379;23;20096;-85
2023/08/16 03:23:14;;;;;;;4.38;1.02;;;14.00;99.90;;;;;;6159373;23;20023;-85
2023/08/16 03:25:40;;;;;;;3.35;1.17;;;13.90;99.90;;;;;;6158745;23;20013;-85
2023/08/16 03:28:06;;;;;;;26.25;2.25;;;13.80;99.90;;;;;;6133510;23;20005;-85
2023/08/16 03:30:31;;;;;;;3.80;1.10;;;13.70;99.90;;;;;;6134049;23;20478;-85
2023/08/16 03:32:57;;;;;;;4.43;1.88;;;13.60;99.90;;;;;;6158798;23;20407;-85
2023/08/16 03:35:23;;;;;;;2.97;1.30;;;13.60;99.90;;;;;;6134503;23;20013;-85
2023/08/16 03:37:48;;;;;;;3.03;1.50;;;13.60;99.90;;;;;;6158808;23;20016;-85
2023/08/16 03:40:14;;;;;;;1.15;0.75;;;13.60;99.90;;;;;;6159049;23;20108;-85
2023/08/16 03:42:40;;;;;;;1.58;0.80;;;13.60;99.90;;;;;;6159106;23;20019;-85
2023/08/16 03:45:06;;;;;;;0.68;0.68;;;13.50;99.90;;;;;;6158679;23;20351;-85
2023/08/16 03:47:33;;;;;;;0.73;0.73;;;13.50;99.90;;;;;;6133703;23;20013;-85
2023/08/16 03:49:59;;;;;;;1.02;0.70;;;13.40;99.90;;;;;;6158465;23;20013;-85
2023/08/16 03:52:26;;;;;;;2.50;1.10;;;13.40;99.90;;;;;;6133698;23;20118;-85
2023/08/16 03:54:53;;;;;;;2.80;0.98;;;13.50;99.90;;;;;;6158507;23;20013;-85
2023/08/16 03:57:19;;;;;;;2.72;1.17;;;13.60;99.90;;;;;;6158554;23;20084;-85
2023/08/16 03:59:45;;;;;;;0.93;0.82;;;13.60;99.90;;;;;;6159028;23;20063;-85
2023/08/16 04:02:10;;;;;;;1.67;0.90;;;13.50;99.90;;;;;;6158919;23;20021;-85
2023/08/16 04:04:36;;;;;;;2.95;1.58;;;13.50;99.90;;;;;;6159078;23;20064;-85
2023/08/16 04:07:02;;;;;;;6.40;3.40;;;13.40;99.90;;;;;;6158124;23;20009;-85
2023/08/16 04:09:27;;;;;;;3.40;1.40;;;13.50;99.90;;;;;;6159260;23;20020;-84
2023/08/16 04:11:53;;;;;;;4.75;1.40;;;13.50;99.90;;;;;;6174230;23;20049;-84
2023/08/16 04:14:18;;;;;;;3.30;1.40;;;13.40;99.90;;;;;;6160840;23;20052;-84
2023/08/16 04:16:44;;;;;;;5.60;2.40;;;13.40;99.90;;;;;;6160151;23;20028;-84
2023/08/16 04:19:10;;;;;;;5.80;2.60;;;13.50;99.90;;;;;;6159504;23;20036;-85
2023/08/16 04:21:35;;;;;;;5.20;1.65;;;13.60;99.90;;;;;;6159615;23;20359;-85
2023/08/16 04:24:01;;;;;;;4.60;1.50;;;13.60;99.90;;;;;;6134871;23;20096;-84
2023/08/16 04:26:26;;;;;;;4.95;1.60;;;13.50;99.90;;;;;;6158666;23;20350;-85
2023/08/16 04:28:52;;;;;;;5.30;2.55;;;13.50;99.90;;;;;;6157878;23;20017;-85
2023/08/16 04:31:17;;;;;;;5.13;1.70;;;13.60;99.90;;;;;;6158330;23;20044;-85
2023/08/16 04:33:43;;;;;;;3.72;1.52;;;13.60;99.90;;;;;;6158506;23;20358;-85
2023/08/16 04:36:09;;;;;;;5.10;2.20;;;13.60;99.90;;;;;;6133443;23;20013;-85
2023/08/16 04:38:34;;;;;;;6.85;2.60;;;13.70;99.90;;;;;;6158811;23;20016;-85
2023/08/16 04:41:00;;;;;;;6.15;1.65;;;13.80;99.90;;;;;;6158390;23;20096;-86
2023/08/16 04:43:25;;;;;;;3.88;1.52;;;13.80;99.90;;;;;;6158492;23;20013;-86
2023/08/16 04:45:51;;;;;;;4.00;1.73;;;13.70;99.90;;;;;;6157956;23;20374;-86
2023/08/16 04:48:16;;;;;;;6.22;1.88;;;13.70;99.90;;;;;;6157587;23;20009;-86
2023/08/16 04:50:42;;;;;;;5.43;2.55;;;13.70;99.90;;;;;;6158099;23;20485;-86
2023/08/16 04:53:08;;;;;;;7.43;2.72;;;13.80;99.90;;;;;;6157890;23;20015;-86
2023/08/16 04:55:33;;;;;;;2.92;1.40;;;13.90;99.90;;;;;;6158001;23;20091;-86
2023/08/16 04:57:59;;;;;;;4.97;1.42;;;13.90;99.90;;;;;;6158284;23;20083;-86
2023/08/16 05:00:25;;;;;;;5.63;2.45;;;13.80;99.90;;;;;;6133488;23;20013;-86
2023/08/16 05:02:50;;;;;;;6.85;3.33;;;13.90;99.90;;;;;;6133528;23;20017;-86
2023/08/16 05:05:16;;;;;;;7.78;3.28;;;14.00;99.90;;;;;;6157608;23;20009;-86
2023/08/16 05:07:41;;;;;;;4.10;1.60;;;14.00;99.90;;;;;;6132982;23;20124;-86
2023/08/16 05:10:07;;;;;;;5.22;1.77;;;14.00;99.90;;;;;;6157851;23;20015;-86
2023/08/16 05:12:33;;;;;;;5.10;1.90;;;14.00;99.90;;;;;;6157794;23;20009;-86
2023/08/16 05:14:58;;;;;;;7.30;2.88;;;14.00;99.90;;;;;;6157554;23;20021;-86
2023/08/16 05:17:24;;;;;;;7.97;4.47;;;14.00;99.90;;;;;;6133647;23;20443;-86
2023/08/16 05:19:50;;;;;;;9.70;5.20;;;14.10;99.90;;;;;;6157995;23;20493;-86
2023/08/16 05:22:15;;;;;;;7.25;2.97;;;14.30;99.90;;;;;;6158062;23;20020;-86
2023/08/16 05:24:41;;;;;;;7.35;3.10;;;14.30;99.90;;;;;;6133957;23;20013;-86
2023/08/16 05:27:12;;;;;;;10.95;6.25;;;14.30;99.90;;;;;;6132634;23;20017;-86
2023/08/16 05:29:39;;;;;;;10.07;6.13;;;14.40;99.90;;;;;;6157554;23;20084;-86
2023/08/16 05:32:04;;;;;;;7.38;3.00;;;14.50;99.90;;;;;;6132383;23;20013;-86
2023/08/16 05:34:30;;;;;;;10.98;4.00;;;14.50;99.90;;;;;;6133785;23;20514;-87
2023/08/16 05:36:56;;;;;;;10.00;6.70;;;14.40;99.90;;;;;;6157334;23;20606;-86
2023/08/16 05:39:22;;;;;;;7.45;3.63;;;14.50;99.90;;;;;;6157973;23;20026;-86
2023/08/16 05:41:48;;;;;;;11.88;7.20;;;14.60;99.90;;;;;;6132921;23;20359;-86
2023/08/16 05:44:14;;;;;;;12.02;6.75;;;14.60;99.90;;;;;;6157794;23;20013;-86
2023/08/16 05:46:39;;;;;;;9.18;3.95;;;14.70;99.90;;;;;;6157509;23;20402;-86
2023/08/16 05:49:05;;;;;;;9.88;7.25;;;14.70;99.90;;;;;;6157360;23;20386;-86
2023/08/16 05:51:32;;;;;;;12.13;8.00;;;14.80;99.90;;;;;;6132706;23;20458;-86
2023/08/16 05:53:58;;;;;;;11.68;7.50;;;14.90;99.90;;;;;;6157364;23;20016;-86
2023/08/16 05:56:24;;;;;;;9.98;3.90;;;14.90;99.90;;;;;;6157154;23;20506;-87
2023/08/16 05:58:49;;;;;;;8.60;3.60;;;14.90;99.90;;;;;;6133002;23;20028;-86
2023/08/16 06:01:15;;;;;;;10.95;7.68;;;14.90;99.90;;;;;;6157400;23;20032;-87
2023/08/16 06:03:40;;;;;;;10.93;4.97;;;15.00;99.90;;;;;;6157837;23;20091;-87
2023/08/16 06:06:06;;;;;;;10.90;8.25;;;15.10;99.90;;;;;;6157191;23;20009;-87
2023/08/16 06:08:32;;;;;;;9.63;5.32;;;15.20;99.90;;;;;;6132595;23;20064;-87
2023/08/16 06:10:57;;;;;;;13.35;4.72;;;15.20;99.90;;;;;;6132750;23;20024;-87
2023/08/16 06:13:23;;;;;;;8.35;4.47;;;15.20;99.90;;;;;;6157163;23;20473;-87
2023/08/16 06:15:49;;;;;;;14.20;8.80;;;15.30;99.90;;;;;;6132751;23;20404;-87
2023/08/16 06:18:14;;;;;;;8.00;4.50;;;15.40;99.90;;;;;;6133142;23;20095;-87
2023/08/16 06:20:40;;;;;;;15.05;8.23;;;15.40;99.90;;;;;;6157830;23;20529;-87
2023/08/16 06:23:06;;;;;;;12.45;8.80;;;15.50;99.90;;;;;;6133290;23;20009;-87
2023/08/16 06:25:32;;;;;;;9.43;4.55;;;15.60;99.90;;;;;;6156640;23;20043;-86
2023/08/16 06:27:58;;;;;;;11.88;9.25;;;15.70;99.90;;;;;;6156167;23;20637;-87
2023/08/16 06:30:23;;;;;;;11.15;8.30;;;15.80;99.90;;;;;;6132546;23;20095;-87
2023/08/16 06:32:49;;;;;;;12.40;9.00;;;15.90;99.90;;;;;;6132679;23;20047;-87
2023/08/16 06:35:15;;;;;;;14.38;9.93;;;16.00;99.90;;;;;;6132747;23;20020;-87
2023/08/16 06:37:41;;;;;;;11.30;8.82;;;16.10;99.90;;;;;;6157271;23;20020;-87
2023/08/16 06:40:08;;;;;;;12.70;6.50;;;16.20;99.90;;;;;;6158380;23;20036;-86
2023/08/16 06:42:37;;;;;;;11.27;6.25;;;16.20;99.90;;;;;;6132870;23;20016;-86
2023/08/16 06:45:02;;;;;;;12.25;6.65;;;16.30;99.90;;;;;;6157306;23;20361;-86
2023/08/16 06:47:28;;;;;;;12.93;8.90;;;16.40;99.90;;;;;;6156893;23;20009;-87
2023/08/16 06:49:54;;;;;;;12.80;9.57;;;16.50;99.90;;;;;;6132341;23;20100;-87
2023/08/16 06:52:19;;;;;;;14.80;9.93;;;16.60;99.90;;;;;;6132699;23;20044;-87
2023/08/16 06:54:45;;;;;;;11.13;5.38;;;16.70;99.90;;;;;;6132840;23;20021;-87
2023/08/16 06:57:11;;;;;;;12.57;8.75;;;16.70;99.90;;;;;;6131725;23;20013;-86
2023/08/16 06:59:38;;;;;;;14.07;9.65;;;16.90;99.90;;;;;;6133106;23;20347;-86
2023/08/16 07:02:04;;;;;;;12.40;9.52;;;17.00;99.90;;;;;;6157790;23;20064;-86
2023/08/16 07:04:30;;;;;;;10.05;5.75;;;17.00;99.90;;;;;;6132985;23;20091;-86
2023/08/16 07:06:55;;;;;;;13.65;8.00;;;17.10;99.90;;;;;;6157239;23;20044;-86
2023/08/16 07:09:24;;;;;;;14.13;9.52;;;17.20;99.90;;;;;;6132133;23;20033;-87
2023/08/16 07:11:50;;;;;;;11.82;8.65;;;17.30;99.90;;;;;;6132527;23;20057;-87
2023/08/16 07:14:15;;;;;;;12.75;8.70;;;17.50;99.90;;;;;;6157040;23;20021;-86
2023/08/16 07:16:41;;;;;;;14.73;8.02;;;17.60;99.90;;;;;;6132568;23;20013;-86
2023/08/16 07:19:08;;;;;;;12.05;7.22;;;17.70;99.90;;;;;;6132319;23;20013;-86
2023/08/16 07:21:35;;;;;;;10.95;5.68;;;17.80;99.90;;;;;;6156895;23;20020;-87
2023/08/16 07:24:01;;;;;;;11.77;7.25;;;17.80;99.90;;;;;;6132777;23;20011;-86
2023/08/16 07:26:27;;;;;;;11.68;8.63;;;17.90;99.90;;;;;;6132312;23;20035;-87
2023/08/16 07:28:53;;;;;;;13.07;9.32;;;17.90;99.90;;;;;;6132284;23;20343;-87
2023/08/16 07:31:18;;;;;;;13.75;6.95;;;18.00;99.90;;;;;;6156633;23;20013;-87
2023/08/16 07:33:44;;;;;;;9.57;5.60;;;18.00;99.90;;;;;;6132289;23;20024;-87
2023/08/16 07:36:10;;;;;;;8.88;4.70;;;18.00;99.90;;;;;;6132451;23;20024;-87
2023/08/16 07:38:36;;;;;;;10.00;4.68;;;18.10;99.90;;;;;;6157005;23;20088;-87
2023/08/16 07:41:02;;;;;;;12.00;4.45;;;18.10;99.90;;;;;;6133059;23;20052;-87
2023/08/16 07:43:30;;;;;;;11.32;4.75;;;18.10;99.90;;;;;;6132913;23;20087;-87
2023/08/16 07:45:56;;;;;;;9.35;4.22;;;18.20;99.90;;;;;;6157650;23;20024;-87
2023/08/16 07:48:21;;;;;;;9.02;4.55;;;18.20;99.90;;;;;;6131784;23;20017;-87
2023/08/16 07:50:49;;;;;;;9.40;4.00;;;18.30;99.90;;;;;;6183303;23;20044;-88
2023/08/16 07:53:14;;;;;;;11.23;4.15;;;18.40;99.90;;;;;;6132647;23;20020;-87
2023/08/16 07:55:40;;;;;;;9.48;3.38;;;18.50;99.90;;;;;;6133952;23;20016;-87
2023/08/16 07:58:06;;;;;;;11.00;4.47;;;18.50;99.90;;;;;;6132859;23;20017;-87
2023/08/16 08:00:31;;;;;;;8.45;3.72;;;18.60;99.90;;;;;;6134840;23;20032;-87
2023/08/16 08:02:57;;;;;;;11.93;3.92;;;18.70;99.90;;;;;;6134642;23;20013;-87
2023/08/16 08:05:23;;;;;;;10.57;4.45;;;18.80;99.90;;;;;;6134843;23;20009;-88
2023/08/16 08:07:50;;;;;;;9.20;4.68;;;18.90;99.90;;;;;;6158762;23;20031;-87
2023/08/16 08:10:15;;;;;;;9.88;4.90;;;18.90;99.90;;;;;;6133079;23;20083;-87
2023/08/16 08:12:47;;;;;;;12.00;4.40;;;19.00;99.90;;;;;;6158056;23;20458;-87
2023/08/16 08:15:13;;;;;;;9.55;3.50;;;19.00;99.90;;;;;;6132871;23;20052;-87
2023/08/16 08:17:40;;;;;;;10.27;4.80;;;19.00;99.90;;;;;;6133229;23;20005;-87
2023/08/16 08:20:07;;;;;;;9.10;4.32;;;19.00;99.90;;;;;;6158211;23;20036;-87
2023/08/16 08:22:33;;;;;;;12.93;6.13;;;19.00;99.90;;;;;;6159126;23;20037;-87
2023/08/16 08:24:59;;;;;;;8.75;4.57;;;19.10;99.90;;;;;;6133595;23;20020;-87
2023/08/16 08:27:24;;;;;;;10.88;4.88;;;19.20;99.90;;;;;;6134064;23;20083;-87
2023/08/16 08:29:50;;;;;;;9.02;5.22;;;19.30;99.90;;;;;;6158651;23;20012;-87
2023/08/16 08:32:17;;;;;;;10.75;5.45;;;19.40;99.90;;;;;;6133201;23;20017;-87
2023/08/16 08:34:43;;;;;;;10.85;5.70;;;19.50;99.90;;;;;;6133969;23;20019;-87
2023/08/16 08:37:09;;;;;;;9.60;5.43;;;19.50;99.90;;;;;;6157894;23;20041;-87
2023/08/16 08:39:35;;;;;;;11.68;5.82;;;19.50;99.90;;;;;;6134178;23;20332;-87
2023/08/16 08:42:04;;;;;;;9.60;4.53;;;19.50;99.90;;;;;;6134085;23;20025;-87
2023/08/16 08:44:30;;;;;;;10.55;4.90;;;19.60;99.90;;;;;;6134557;23;20092;-88
2023/08/16 08:46:57;;;;;;;10.98;4.60;;;19.60;99.90;;;;;;6158128;23;20021;-88
2023/08/16 08:49:25;;;;;;;10.13;4.00;;;19.70;99.90;;;;;;6134650;23;20067;-87
2023/08/16 08:51:52;;;;;;;9.38;4.50;;;19.80;99.90;;;;;;6158260;23;20020;-87
2023/08/16 08:54:18;;;;;;;8.52;3.75;;;19.80;99.90;;;;;;6133325;23;20486;-88
2023/08/16 08:56:45;;;;;;;9.32;3.90;;;19.80;99.90;;;;;;6133504;23;20017;-88
2023/08/16 08:59:11;;;;;;;9.10;3.60;;;19.90;99.90;;;;;;6158504;23;20040;-88
2023/08/16 09:01:38;;;;;;;9.85;3.40;;;20.00;99.90;;;;;;6158473;23;20014;-87
2023/08/16 09:04:05;;;;;;;9.73;3.38;;;20.10;99.90;;;;;;6133802;23;20455;-87
2023/08/16 09:06:31;;;;;;;9.05;3.55;;;20.20;99.90;;;;;;6133104;23;20040;-87
2023/08/16 09:08:57;;;;;;;7.78;2.80;;;20.30;99.90;;;;;;6157319;23;20343;-88
2023/08/16 09:11:26;;;;;;;7.38;2.58;;;20.40;99.90;;;;;;6157669;23;20467;-87
2023/08/16 09:13:53;;;;;;;9.85;2.85;;;20.50;99.90;;;;;;6157968;23;20088;-87
2023/08/16 09:16:24;;;;;;;8.30;2.80;;;20.60;99.90;;;;;;6156928;23;20443;-88
2023/08/16 09:18:51;;;;;;;7.82;2.55;;;20.70;99.90;;;;;;6157979;23;20479;-88
2023/08/16 09:21:24;;;;;;;7.13;2.70;;;20.80;99.90;;;;;;6184802;23;20021;-87
2023/08/16 09:23:57;;;;;;;7.40;2.80;;;20.90;99.90;;;;;;6110529;23;20012;-87
2023/08/16 09:26:23;;;;;;;8.50;3.00;;;21.10;99.90;;;;;;6158195;23;20418;-87
2023/08/16 09:28:59;;;;;;;6.47;2.50;;;21.10;99.90;;;;;;6133068;23;20095;-87
2023/08/16 09:31:26;;;;;;;7.85;2.30;;;21.30;99.90;;;;;;6184819;23;20012;-87
2023/08/16 09:33:58;;;;;;;8.27;2.30;;;21.30;99.90;;;;;;6157962;23;20009;-87
2023/08/16 09:36:29;;;;;;;6.85;2.42;;;21.40;99.90;;;;;;6133420;23;20089;-87
2023/08/16 09:39:04;;;;;;;6.88;2.47;;;21.50;99.90;;;;;;6158017;23;20017;-87
2023/08/16 09:41:31;;;;;;;7.80;2.63;;;21.50;99.90;;;;;;6133593;23;20021;-87
2023/08/16 09:44:07;;;;;;;7.25;2.28;;;21.60;99.90;;;;;;6157268;23;20019;-88
2023/08/16 09:46:34;;;;;;;7.90;2.60;;;21.70;99.90;;;;;;6158444;23;20040;-87
2023/08/16 09:49:12;;;;;;;7.13;2.70;;;21.70;99.90;;;;;;6133157;23;20013;-87
2023/08/16 09:51:40;;;;;;;8.60;2.58;;;21.80;99.90;;;;;;6132647;23;20454;-87
2023/08/16 09:54:13;;;;;;;8.07;2.67;;;21.80;99.90;;;;;;6131986;23;20017;-88
2023/08/16 09:56:40;;;;;;;6.28;2.08;;;21.90;99.90;;;;;;6183369;23;20040;-87
2023/08/16 09:59:07;;;;;;;6.63;2.30;;;21.90;99.90;;;;;;6133454;23;20020;-87
2023/08/16 10:01:35;;;;;;;6.82;2.08;;;21.90;99.90;;;;;;6132834;23;20046;-87
2023/08/16 10:04:02;;;;;;;7.60;2.78;;;22.00;99.90;;;;;;6133024;23;20092;-87
2023/08/16 10:06:31;;;;;;;6.53;1.90;;;22.10;99.90;;;;;;6132307;23;20012;-87
2023/08/16 10:08:57;;;;;;;4.22;1.48;;;22.10;99.90;;;;;;6156077;23;20037;-87
2023/08/16 10:11:23;;;;;;;4.55;1.50;;;22.30;99.90;;;;;;6131598;23;20013;-87
2023/08/16 10:13:50;;;;;;;3.75;1.40;;;22.30;99.90;;;;;;6131943;23;20024;-87
2023/08/16 10:16:21;;;;;;;4.20;1.55;;;22.40;99.90;;;;;;6156242;23;20474;-87
2023/08/16 10:18:47;;;;;;;5.35;1.75;;;22.40;99.90;;;;;;6182241;23;20017;-87
2023/08/16 10:21:17;;;;;;;6.32;1.70;;;22.50;99.90;;;;;;6183409;23;20474;-87
2023/08/16 10:23:43;;;;;;;8.13;2.00;;;22.60;99.90;;;;;;6156904;23;20068;-87
2023/08/16 10:26:14;;;;;;;6.10;2.00;;;22.60;99.90;;;;;;6132950;23;20012;-87
2023/08/16 10:28:46;;;;;;;6.60;1.88;;;22.70;99.90;;;;;;6156896;23;20013;-88
2023/08/16 10:31:14;;;;;;;5.43;1.83;;;22.80;99.90;;;;;;6132716;23;20032;-88
2023/08/16 10:33:44;;;;;;;4.90;1.80;;;22.80;99.90;;;;;;6132461;23;20017;-88
2023/08/16 10:36:11;;;;;;;6.85;2.10;;;22.80;99.90;;;;;;6183311;23;20071;-87
2023/08/16 10:38:38;;;;;;;7.63;2.13;;;22.90;99.70;;;;;;6156244;23;20017;-87
2023/08/16 10:41:14;;;;;;;5.88;1.80;;;22.90;99.90;;;;;;6183196;23;20104;-88
2023/08/16 10:43:48;;;;;;;6.03;2.00;;;22.90;99.90;;;;;;6133271;23;20080;-87
2023/08/16 10:46:28;;;;;;;6.63;2.28;;;23.00;99.90;;;;;;6157317;23;20017;-87
2023/08/16 10:49:01;;;;;;;7.53;2.80;;;23.10;99.90;;;;;;6183380;23;20033;-88
2023/08/16 10:51:27;;;;;;;7.78;2.88;;;23.10;99.90;;;;;;6157580;23;20500;-86
2023/08/16 10:53:57;;;;;;;7.82;2.65;;;23.10;99.90;;;;;;6132544;23;20017;-86
2023/08/16 10:56:23;;;;;;;9.00;2.67;;;23.10;99.90;;;;;;6156845;23;20091;-86
2023/08/16 10:58:50;;;;;;;7.97;3.17;;;23.20;99.90;;;;;;6131732;23;20406;-87
2023/08/16 11:01:17;;;;;;;8.50;3.80;;;23.30;99.90;;;;;;6132288;23;20048;-86
2023/08/16 11:03:49;;;;;;;8.60;4.18;;;23.30;99.90;;;;;;6132495;23;20021;-87
2023/08/16 11:06:18;;;;;;;6.78;2.17;;;23.30;99.90;;;;;;6157175;23;20013;-87
2023/08/16 11:08:47;;;;;;;7.00;1.90;;;23.40;99.90;;;;;;6131302;23;20013;-87
2023/08/16 11:11:13;;;;;;;6.35;2.00;;;23.40;99.90;;;;;;6132055;23;20017;-87
2023/08/16 11:13:40;;;;;;;4.72;1.70;;;23.50;99.90;;;;;;6156307;23;20013;-87
2023/08/16 11:16:09;;;;;;;7.22;1.90;;;23.50;99.70;;;;;;6131224;23;20025;-87
2023/08/16 11:18:36;;;;;;;7.28;1.83;;;23.50;97.00;;;;;;6156686;23;20017;-88
2023/08/16 11:21:03;;;;;;;6.97;2.00;;;23.60;98.40;;;;;;6182876;23;20406;-88
2023/08/16 11:23:34;;;;;;;10.18;4.35;;;23.70;97.90;;;;;;6156504;23;20056;-86
2023/08/16 11:26:04;;;;;;;6.20;2.38;;;23.70;97.40;;;;;;6156829;23;20017;-87
2023/08/16 11:28:33;;;;;;;5.72;1.60;;;23.80;94.60;;;;;;6157202;23;20052;-87
2023/08/16 11:31:06;;;;;;;5.60;1.50;;;23.90;92.80;;;;;;6158912;23;20013;-88
2023/08/16 11:33:36;;;;;;;3.67;1.27;;;24.00;91.00;;;;;;6134610;23;20041;-89
2023/08/16 11:36:04;;;;;;;6.07;1.75;;;24.10;90.70;;;;;;6134526;23;20067;-88
2023/08/16 11:38:30;;;;;;;4.47;1.02;;;24.10;90.40;;;;;;6134282;23;20009;-88
2023/08/16 11:40:56;;;;;;;6.53;1.70;;;24.20;88.40;;;;;;6159012;23;20091;-89
2023/08/16 11:43:28;;;;;;;4.97;1.50;;;24.20;86.70;;;;;;6134222;23;20008;-89
2023/08/16 11:45:55;;;;;;;4.57;1.20;;;24.30;86.80;;;;;;6185664;23;20009;-88
2023/08/16 11:48:21;;;;;;;5.20;1.42;;;24.30;85.80;;;;;;6134146;23;20013;-89
2023/08/16 11:50:48;;;;;;;7.50;1.90;;;24.30;88.10;;;;;;6134042;23;20020;-89
2023/08/16 11:53:18;;;;;;;6.68;1.50;;;24.40;89.80;;;;;;6158512;23;20017;-89
2023/08/16 11:55:59;;;;;;;5.53;1.58;;;24.50;90.00;;;;;;6158858;23;20013;-89
2023/08/16 11:58:25;;;;;;;5.63;1.50;;;24.50;90.20;;;;;;6157890;23;20516;-89
2023/08/16 12:00:51;;;;;;;8.15;1.50;;;24.50;90.00;;;;;;6134144;23;20013;-89
2023/08/16 12:03:18;;;;;;;3.92;1.40;;;24.50;90.10;;;;;;6158683;23;20055;-89
2023/08/16 12:05:49;;;;;;;5.60;1.48;;;24.60;89.50;;;;;;6158745;23;20016;-89
2023/08/16 12:08:20;;;;;;;6.53;1.80;;;24.70;89.40;;;;;;6133616;23;20533;-89
2023/08/16 12:10:55;;;;;;;6.60;1.50;;;24.70;85.90;;;;;;6184002;23;20068;-89
2023/08/16 12:13:23;;;;;;;6.28;1.55;;;24.80;86.20;;;;;;6133365;23;20021;-89
2023/08/16 12:15:49;;;;;;;6.50;1.50;;;25.00;85.00;;;;;;6133870;23;20478;-89
2023/08/16 12:18:15;;;;;;;6.43;1.42;;;25.20;83.90;;;;;;6157820;23;20020;-89
2023/08/16 12:20:41;;;;;;;4.63;1.30;;;25.40;82.10;;;;;;6134262;23;20024;-89
2023/08/16 12:23:08;;;;;;;4.85;1.30;;;25.50;81.90;;;;;;6139758;23;20088;-89
2023/08/16 12:25:35;;;;;;;3.80;1.10;;;25.80;82.00;;;;;;6155357;23;20028;-88
2023/08/16 12:28:01;;;;;;;3.90;1.15;;;25.90;78.80;;;;;;6135959;23;20529;-89
2023/08/16 12:30:28;;;;;;;5.28;1.25;;;26.10;75.70;;;;;;6187380;23;20021;-89
2023/08/16 12:32:57;;;;;;;2.65;0.95;;;26.20;75.30;;;;;;6186762;23;20455;-89
2023/08/16 12:35:23;;;;;;;4.80;1.52;;;26.40;75.80;;;;;;6136782;23;20020;-89
2023/08/16 12:37:48;;;;;;;6.15;1.50;;;26.50;76.80;;;;;;6135263;23;20013;-89
2023/08/16 12:40:14;;;;;;;5.80;1.52;;;26.60;74.60;;;;;;6185323;23;20009;-89
2023/08/16 12:42:40;;;;;;;5.10;1.55;;;26.80;74.20;;;;;;6159714;23;20032;-89
2023/08/16 12:45:06;;;;;;;7.07;1.55;;;27.00;75.10;;;;;;6134649;23;20017;-89